Airfield :
LOGIN :

Register | Disclaimer

   EN    FR    IT 

 










Legend :    VFR   Marginal VFR   IFR   Intensive IFR   Very Intensive IFR
Visi :
Ceiling :
>= 8 km
>= 3000ft
5 to 8 km
1000 to 3000 ft
1500m to 5 km
500 to 1000 ft
800 to 1500m
200 to 500 ft
< 800m
< 200 ft
Symbols :   Thunderstorms  Fog  Heavy snow  Heavy precipitations  Wind > 20 kt
SIGMETs :     Misc.  Thunderstorms  Icing  Turbulence  Mountain Waves  Volcanic Ashes







- Airport Elevation : 122 ft
- IATA code : TXL


EDDT - Berlin Tegel Int.

CURRENT METAR :
  • 261150Z 30017KT 250V330 9999 -SHRA FEW015 BKN027 06/02 Q1022 TEMPO 28015G30KT

EXPIRED METARs :
  • 261120Z 27014KT 9999 FEW019 BKN033 07/02 Q1022 TEMPO 27015G30KT
  • 261050Z 27014KT 250V310 9999 -SHRA FEW019 BKN029 06/03 Q1022 TEMPO 27015G30KT
  • 261020Z 27015KT 9999 SCT025 BKN048 07/01 Q1022 TEMPO 28015G30KT
  • 260950Z 27018KT 9999 -SHRA SCT026 06/01 Q1022 TEMPO 27015G30KT
  • 260920Z 29016KT 260V320 9999 BKN025 07/01 Q1023 TEMPO 28015G30KT

TAF TAF EDDT
Valid from the 26 at 12:00 until the 27 at 12:00 UTC


261100Z 2612/2712 29020G30KT 9999 BKN035
BECMG 2617/2619 29007KT
BECMG 2700/2703 BKN010
BECMG 2703/2706 BKN006
PROB40
TEMPO 2705/2709 4500 -RADZ BKN003
BECMG 2706/2708 26012KT
TEMPO 2709/2712 BKN012
No reported NOTAMs for that airfield.



MET'MAP, your aeronautical weather chart ! - Copyright ORBIFLY December 2007 - Disclaimer

ORBIFLY MET'MAP TEAM :

Programming & Development : Alexandra Zaïnal
Concept & Development : Baudouin d'Aumeries
Co-Development & Prog : Marc-Olivier Méhu
Technical & hardware support : Manuel Goepfert

Contact : metmap@orbifly.com




SOURCES & CREDITS :

   NOAA